sensor_id;sensor_type;location;lat;lon;timestamp;temperature;humidity
16040;DHT22;8124;48.634;8.120;2023-04-08T00:00:43;11.70;99.90
16040;DHT22;8124;48.634;8.120;2023-04-08T00:05:46;11.60;99.90
16040;DHT22;8124;48.634;8.120;2023-04-08T00:10:50;11.60;99.90
16040;DHT22;8124;48.634;8.120;2023-04-08T00:15:54;11.40;99.90
16040;DHT22;8124;48.634;8.120;2023-04-08T00:20:57;11.60;99.90
16040;DHT22;8124;48.634;8.120;2023-04-08T00:26:01;11.60;99.90
16040;DHT22;8124;48.634;8.120;2023-04-08T00:31:04;11.60;99.90
16040;DHT22;8124;48.634;8.120;2023-04-08T00:36:07;11.30;99.90
16040;DHT22;8124;48.634;8.120;2023-04-08T00:41:11;11.50;99.90
16040;DHT22;8124;48.634;8.120;2023-04-08T00:46:14;11.10;99.90
16040;DHT22;8124;48.634;8.120;2023-04-08T00:51:17;11.10;99.90
16040;DHT22;8124;48.634;8.120;2023-04-08T00:56:23;11.20;99.90
16040;DHT22;8124;48.634;8.120;2023-04-08T01:01:33;11.40;99.90
16040;DHT22;8124;48.634;8.120;2023-04-08T01:06:40;11.40;99.90
16040;DHT22;8124;48.634;8.120;2023-04-08T01:11:56;11.40;99.90
16040;DHT22;8124;48.634;8.120;2023-04-08T01:17:01;11.20;99.90
16040;DHT22;8124;48.634;8.120;2023-04-08T01:22:11;11.20;99.90
16040;DHT22;8124;48.634;8.120;2023-04-08T01:27:18;11.20;99.90
16040;DHT22;8124;48.634;8.120;2023-04-08T01:32:22;11.40;99.90
16040;DHT22;8124;48.634;8.120;2023-04-08T01:37:28;11.40;99.90
16040;DHT22;8124;48.634;8.120;2023-04-08T01:42:41;11.40;99.90
16040;DHT22;8124;48.634;8.120;2023-04-08T01:47:46;11.40;99.90
16040;DHT22;8124;48.634;8.120;2023-04-08T01:52:50;11.40;99.90
16040;DHT22;8124;48.634;8.120;2023-04-08T01:57:59;11.40;99.90
16040;DHT22;8124;48.634;8.120;2023-04-08T02:03:04;11.40;99.90
16040;DHT22;8124;48.634;8.120;2023-04-08T02:08:08;11.40;99.90
16040;DHT22;8124;48.634;8.120;2023-04-08T02:13:12;11.40;99.90
16040;DHT22;8124;48.634;8.120;2023-04-08T02:18:16;11.40;99.90
16040;DHT22;8124;48.634;8.120;2023-04-08T02:23:26;11.40;99.90
16040;DHT22;8124;48.634;8.120;2023-04-08T02:28:33;11.40;99.90
16040;DHT22;8124;48.634;8.120;2023-04-08T02:33:37;11.40;99.90
16040;DHT22;8124;48.634;8.120;2023-04-08T02:38:41;11.40;99.90
16040;DHT22;8124;48.634;8.120;2023-04-08T02:43:45;11.40;99.90
16040;DHT22;8124;48.634;8.120;2023-04-08T02:48:48;11.30;99.90
16040;DHT22;8124;48.634;8.120;2023-04-08T02:53:52;11.30;99.90
16040;DHT22;8124;48.634;8.120;2023-04-08T02:58:57;11.20;99.90
16040;DHT22;8124;48.634;8.120;2023-04-08T03:04:00;11.20;99.90
16040;DHT22;8124;48.634;8.120;2023-04-08T03:09:03;11.30;99.90
16040;DHT22;8124;48.634;8.120;2023-04-08T03:14:07;11.10;99.90
16040;DHT22;8124;48.634;8.120;2023-04-08T03:19:10;11.10;99.90
16040;DHT22;8124;48.634;8.120;2023-04-08T03:24:13;11.20;99.90
16040;DHT22;8124;48.634;8.120;2023-04-08T03:29:17;11.10;99.90
16040;DHT22;8124;48.634;8.120;2023-04-08T03:34:20;11.20;99.90
16040;DHT22;8124;48.634;8.120;2023-04-08T03:39:23;11.20;99.90
16040;DHT22;8124;48.634;8.120;2023-04-08T03:44:28;11.00;99.90
16040;DHT22;8124;48.634;8.120;2023-04-08T03:49:31;10.90;99.90
16040;DHT22;8124;48.634;8.120;2023-04-08T03:54:34;10.70;99.90
16040;DHT22;8124;48.634;8.120;2023-04-08T03:59:38;10.60;99.90
16040;DHT22;8124;48.634;8.120;2023-04-08T04:04:41;10.70;99.90
16040;DHT22;8124;48.634;8.120;2023-04-08T04:09:44;10.90;99.90
16040;DHT22;8124;48.634;8.120;2023-04-08T04:14:49;11.00;99.90
16040;DHT22;8124;48.634;8.120;2023-04-08T04:19:51;11.00;99.90
16040;DHT22;8124;48.634;8.120;2023-04-08T04:24:54;11.00;99.90
16040;DHT22;8124;48.634;8.120;2023-04-08T04:29:59;10.90;99.90
16040;DHT22;8124;48.634;8.120;2023-04-08T04:35:02;10.90;99.90
16040;DHT22;8124;48.634;8.120;2023-04-08T04:40:06;10.90;99.90
16040;DHT22;8124;48.634;8.120;2023-04-08T04:45:11;11.00;99.90
16040;DHT22;8124;48.634;8.120;2023-04-08T04:50:14;11.00;99.90
16040;DHT22;8124;48.634;8.120;2023-04-08T04:55:17;10.90;99.90
16040;DHT22;8124;48.634;8.120;2023-04-08T05:00:21;10.80;99.90
16040;DHT22;8124;48.634;8.120;2023-04-08T05:05:24;10.90;99.90
16040;DHT22;8124;48.634;8.120;2023-04-08T05:10:27;10.80;99.90
16040;DHT22;8124;48.634;8.120;2023-04-08T05:15:31;10.80;99.90
16040;DHT22;8124;48.634;8.120;2023-04-08T05:20:34;10.90;99.90
16040;DHT22;8124;48.634;8.120;2023-04-08T05:25:37;10.90;99.90
16040;DHT22;8124;48.634;8.120;2023-04-08T05:30:41;10.90;99.90
16040;DHT22;8124;48.634;8.120;2023-04-08T05:35:44;11.00;99.90
16040;DHT22;8124;48.634;8.120;2023-04-08T05:40:47;11.00;99.90
16040;DHT22;8124;48.634;8.120;2023-04-08T05:45:51;11.00;99.90
16040;DHT22;8124;48.634;8.120;2023-04-08T05:50:54;11.10;99.90
16040;DHT22;8124;48.634;8.120;2023-04-08T05:55:57;11.10;99.90
16040;DHT22;8124;48.634;8.120;2023-04-08T06:01:01;11.10;99.90
16040;DHT22;8124;48.634;8.120;2023-04-08T06:06:09;11.00;99.90
16040;DHT22;8124;48.634;8.120;2023-04-08T06:11:13;10.90;99.90
16040;DHT22;8124;48.634;8.120;2023-04-08T06:16:18;10.90;99.90
16040;DHT22;8124;48.634;8.120;2023-04-08T06:21:22;10.80;99.90
16040;DHT22;8124;48.634;8.120;2023-04-08T06:26:25;10.90;99.90
16040;DHT22;8124;48.634;8.120;2023-04-08T06:31:29;10.80;99.90
16040;DHT22;8124;48.634;8.120;2023-04-08T06:36:32;10.80;99.90
16040;DHT22;8124;48.634;8.120;2023-04-08T06:41:35;10.90;99.90
16040;DHT22;8124;48.634;8.120;2023-04-08T06:46:53;11.10;99.90
16040;DHT22;8124;48.634;8.120;2023-04-08T06:51:56;11.20;99.90
16040;DHT22;8124;48.634;8.120;2023-04-08T06:56:59;11.10;99.90
16040;DHT22;8124;48.634;8.120;2023-04-08T07:02:03;11.10;99.90
16040;DHT22;8124;48.634;8.120;2023-04-08T07:07:07;11.20;99.90
16040;DHT22;8124;48.634;8.120;2023-04-08T07:12:10;11.20;99.90
16040;DHT22;8124;48.634;8.120;2023-04-08T07:17:15;11.10;99.90
16040;DHT22;8124;48.634;8.120;2023-04-08T07:22:18;11.20;99.90
16040;DHT22;8124;48.634;8.120;2023-04-08T07:27:21;11.20;99.90
16040;DHT22;8124;48.634;8.120;2023-04-08T07:32:25;11.20;99.90
16040;DHT22;8124;48.634;8.120;2023-04-08T07:37:28;11.30;99.90
16040;DHT22;8124;48.634;8.120;2023-04-08T07:42:31;11.40;99.90
16040;DHT22;8124;48.634;8.120;2023-04-08T07:47:35;11.40;99.90
16040;DHT22;8124;48.634;8.120;2023-04-08T07:52:39;11.30;99.90
16040;DHT22;8124;48.634;8.120;2023-04-08T07:57:41;11.40;99.90
16040;DHT22;8124;48.634;8.120;2023-04-08T08:02:46;11.50;99.90
16040;DHT22;8124;48.634;8.120;2023-04-08T08:07:49;11.50;99.90
16040;DHT22;8124;48.634;8.120;2023-04-08T08:12:52;11.40;99.90
16040;DHT22;8124;48.634;8.120;2023-04-08T08:17:56;11.40;99.90
16040;DHT22;8124;48.634;8.120;2023-04-08T08:22:59;11.50;99.90
16040;DHT22;8124;48.634;8.120;2023-04-08T08:28:02;11.50;99.90
16040;DHT22;8124;48.634;8.120;2023-04-08T08:33:07;11.60;99.90
16040;DHT22;8124;48.634;8.120;2023-04-08T08:38:11;11.60;99.90
16040;DHT22;8124;48.634;8.120;2023-04-08T08:43:14;11.90;99.90
16040;DHT22;8124;48.634;8.120;2023-04-08T08:48:18;11.90;99.90
16040;DHT22;8124;48.634;8.120;2023-04-08T08:53:28;11.60;99.90
16040;DHT22;8124;48.634;8.120;2023-04-08T08:58:32;11.70;99.90
16040;DHT22;8124;48.634;8.120;2023-04-08T09:03:37;11.60;99.90
16040;DHT22;8124;48.634;8.120;2023-04-08T09:08:40;11.70;99.90
16040;DHT22;8124;48.634;8.120;2023-04-08T09:13:44;11.80;99.90
16040;DHT22;8124;48.634;8.120;2023-04-08T09:18:48;12.00;99.90
16040;DHT22;8124;48.634;8.120;2023-04-08T09:23:51;11.90;99.90
16040;DHT22;8124;48.634;8.120;2023-04-08T09:28:59;11.80;99.90
16040;DHT22;8124;48.634;8.120;2023-04-08T09:34:20;11.70;99.90
16040;DHT22;8124;48.634;8.120;2023-04-08T09:39:24;12.00;99.90
16040;DHT22;8124;48.634;8.120;2023-04-08T09:44:28;12.00;99.90
16040;DHT22;8124;48.634;8.120;2023-04-08T09:49:37;12.10;99.90
16040;DHT22;8124;48.634;8.120;2023-04-08T09:54:51;12.20;99.90
16040;DHT22;8124;48.634;8.120;2023-04-08T09:59:59;12.10;99.90
16040;DHT22;8124;48.634;8.120;2023-04-08T10:05:16;12.50;99.90
16040;DHT22;8124;48.634;8.120;2023-04-08T10:10:20;12.50;99.90
16040;DHT22;8124;48.634;8.120;2023-04-08T10:15:24;12.40;99.90
16040;DHT22;8124;48.634;8.120;2023-04-08T10:20:45;12.60;99.90
16040;DHT22;8124;48.634;8.120;2023-04-08T10:25:48;13.00;99.90
16040;DHT22;8124;48.634;8.120;2023-04-08T10:30:52;12.70;99.90
16040;DHT22;8124;48.634;8.120;2023-04-08T10:35:59;12.70;99.90
16040;DHT22;8124;48.634;8.120;2023-04-08T10:41:04;12.70;99.90
16040;DHT22;8124;48.634;8.120;2023-04-08T10:46:09;12.80;99.90
16040;DHT22;8124;48.634;8.120;2023-04-08T10:51:13;12.90;99.90
16040;DHT22;8124;48.634;8.120;2023-04-08T10:56:18;13.00;99.90
16040;DHT22;8124;48.634;8.120;2023-04-08T11:01:22;12.80;99.90
16040;DHT22;8124;48.634;8.120;2023-04-08T11:06:28;13.00;99.90
16040;DHT22;8124;48.634;8.120;2023-04-08T11:11:31;13.00;99.90
16040;DHT22;8124;48.634;8.120;2023-04-08T11:16:35;13.10;99.90
16040;DHT22;8124;48.634;8.120;2023-04-08T11:21:40;13.30;99.90
16040;DHT22;8124;48.634;8.120;2023-04-08T11:26:43;13.20;99.90
16040;DHT22;8124;48.634;8.120;2023-04-08T11:31:46;13.10;99.90
16040;DHT22;8124;48.634;8.120;2023-04-08T11:36:51;13.20;99.90
16040;DHT22;8124;48.634;8.120;2023-04-08T11:41:54;13.50;99.90
16040;DHT22;8124;48.634;8.120;2023-04-08T11:46:58;13.70;99.90
16040;DHT22;8124;48.634;8.120;2023-04-08T11:52:04;13.70;99.90
16040;DHT22;8124;48.634;8.120;2023-04-08T11:57:08;13.80;99.90
16040;DHT22;8124;48.634;8.120;2023-04-08T12:02:11;13.80;99.90
16040;DHT22;8124;48.634;8.120;2023-04-08T12:07:15;13.60;99.90
16040;DHT22;8124;48.634;8.120;2023-04-08T12:12:19;13.70;99.90
16040;DHT22;8124;48.634;8.120;2023-04-08T12:17:22;13.90;99.90
16040;DHT22;8124;48.634;8.120;2023-04-08T12:22:26;13.70;99.90
16040;DHT22;8124;48.634;8.120;2023-04-08T12:27:30;13.50;99.90
16040;DHT22;8124;48.634;8.120;2023-04-08T12:32:34;13.60;99.90
16040;DHT22;8124;48.634;8.120;2023-04-08T12:37:38;13.50;99.90
16040;DHT22;8124;48.634;8.120;2023-04-08T12:42:41;13.40;99.90
16040;DHT22;8124;48.634;8.120;2023-04-08T12:47:44;13.40;99.90
16040;DHT22;8124;48.634;8.120;2023-04-08T12:52:49;13.30;99.90
16040;DHT22;8124;48.634;8.120;2023-04-08T12:57:52;13.30;99.90
16040;DHT22;8124;48.634;8.120;2023-04-08T13:02:55;13.10;99.90
16040;DHT22;8124;48.634;8.120;2023-04-08T13:07:59;13.30;99.90
16040;DHT22;8124;48.634;8.120;2023-04-08T13:13:02;13.30;99.90
16040;DHT22;8124;48.634;8.120;2023-04-08T13:18:05;13.30;99.90
16040;DHT22;8124;48.634;8.120;2023-04-08T13:23:09;13.50;99.90
16040;DHT22;8124;48.634;8.120;2023-04-08T13:28:13;13.50;99.40
16040;DHT22;8124;48.634;8.120;2023-04-08T13:33:16;13.40;98.10
16040;DHT22;8124;48.634;8.120;2023-04-08T13:38:20;13.40;97.10
16040;DHT22;8124;48.634;8.120;2023-04-08T13:43:25;13.40;96.30
16040;DHT22;8124;48.634;8.120;2023-04-08T13:48:28;13.20;95.50
16040;DHT22;8124;48.634;8.120;2023-04-08T13:53:32;13.40;95.30
16040;DHT22;8124;48.634;8.120;2023-04-08T13:58:35;13.40;95.00
16040;DHT22;8124;48.634;8.120;2023-04-08T14:03:39;13.50;94.90
16040;DHT22;8124;48.634;8.120;2023-04-08T14:08:43;13.60;95.30
16040;DHT22;8124;48.634;8.120;2023-04-08T14:13:46;13.50;95.20
16040;DHT22;8124;48.634;8.120;2023-04-08T14:18:49;13.40;95.40
16040;DHT22;8124;48.634;8.120;2023-04-08T14:23:54;13.40;96.30
16040;DHT22;8124;48.634;8.120;2023-04-08T14:28:57;13.20;96.00
16040;DHT22;8124;48.634;8.120;2023-04-08T14:34:06;13.50;96.40
16040;DHT22;8124;48.634;8.120;2023-04-08T14:39:10;13.50;96.50
16040;DHT22;8124;48.634;8.120;2023-04-08T14:44:14;13.30;96.40
16040;DHT22;8124;48.634;8.120;2023-04-08T14:49:17;13.30;96.70
16040;DHT22;8124;48.634;8.120;2023-04-08T14:54:21;13.10;96.50
16040;DHT22;8124;48.634;8.120;2023-04-08T14:59:24;13.10;96.70
16040;DHT22;8124;48.634;8.120;2023-04-08T15:04:27;12.90;97.10
16040;DHT22;8124;48.634;8.120;2023-04-08T15:09:31;13.00;97.90
16040;DHT22;8124;48.634;8.120;2023-04-08T15:14:34;13.00;98.30
16040;DHT22;8124;48.634;8.120;2023-04-08T15:19:37;13.00;98.60
16040;DHT22;8124;48.634;8.120;2023-04-08T15:24:41;13.10;98.80
16040;DHT22;8124;48.634;8.120;2023-04-08T15:29:45;13.10;99.00
16040;DHT22;8124;48.634;8.120;2023-04-08T15:34:48;13.20;99.70
16040;DHT22;8124;48.634;8.120;2023-04-08T15:39:53;13.00;98.90
16040;DHT22;8124;48.634;8.120;2023-04-08T15:45:04;13.00;99.00
16040;DHT22;8124;48.634;8.120;2023-04-08T15:50:08;12.90;99.00
16040;DHT22;8124;48.634;8.120;2023-04-08T15:55:13;13.00;99.00
16040;DHT22;8124;48.634;8.120;2023-04-08T16:00:16;12.90;99.10
16040;DHT22;8124;48.634;8.120;2023-04-08T16:05:32;12.90;98.90
16040;DHT22;8124;48.634;8.120;2023-04-08T16:10:38;12.80;98.60
16040;DHT22;8124;48.634;8.120;2023-04-08T16:15:40;12.70;98.70
16040;DHT22;8124;48.634;8.120;2023-04-08T16:20:44;12.70;98.90
16040;DHT22;8124;48.634;8.120;2023-04-08T16:25:50;12.80;99.40
16040;DHT22;8124;48.634;8.120;2023-04-08T16:30:53;12.90;99.90
16040;DHT22;8124;48.634;8.120;2023-04-08T16:35:56;12.80;99.90
16040;DHT22;8124;48.634;8.120;2023-04-08T16:41:01;12.60;99.90
16040;DHT22;8124;48.634;8.120;2023-04-08T16:46:08;12.60;99.90
16040;DHT22;8124;48.634;8.120;2023-04-08T16:51:12;12.60;99.90
16040;DHT22;8124;48.634;8.120;2023-04-08T16:56:17;12.60;99.90
16040;DHT22;8124;48.634;8.120;2023-04-08T17:01:20;12.50;99.90
16040;DHT22;8124;48.634;8.120;2023-04-08T17:06:25;12.40;99.90
16040;DHT22;8124;48.634;8.120;2023-04-08T17:11:30;12.30;99.90
16040;DHT22;8124;48.634;8.120;2023-04-08T17:16:34;12.40;99.90
16040;DHT22;8124;48.634;8.120;2023-04-08T17:21:37;12.60;99.90
16040;DHT22;8124;48.634;8.120;2023-04-08T17:26:44;12.50;99.90
16040;DHT22;8124;48.634;8.120;2023-04-08T17:31:47;12.50;99.90
16040;DHT22;8124;48.634;8.120;2023-04-08T17:36:50;12.60;99.90
16040;DHT22;8124;48.634;8.120;2023-04-08T17:41:55;12.60;99.90
16040;DHT22;8124;48.634;8.120;2023-04-08T17:46:58;12.60;99.90
16040;DHT22;8124;48.634;8.120;2023-04-08T17:52:01;12.60;99.90
16040;DHT22;8124;48.634;8.120;2023-04-08T17:57:05;12.70;99.90
16040;DHT22;8124;48.634;8.120;2023-04-08T18:02:09;12.60;99.90
16040;DHT22;8124;48.634;8.120;2023-04-08T18:07:12;12.70;99.90
16040;DHT22;8124;48.634;8.120;2023-04-08T18:12:16;12.90;99.90
16040;DHT22;8124;48.634;8.120;2023-04-08T18:17:21;13.00;99.90
16040;DHT22;8124;48.634;8.120;2023-04-08T18:22:24;12.90;99.90
16040;DHT22;8124;48.634;8.120;2023-04-08T18:27:28;12.60;99.90
16040;DHT22;8124;48.634;8.120;2023-04-08T18:32:31;12.50;99.90
16040;DHT22;8124;48.634;8.120;2023-04-08T18:37:34;12.60;99.90
16040;DHT22;8124;48.634;8.120;2023-04-08T18:42:38;12.70;99.90
16040;DHT22;8124;48.634;8.120;2023-04-08T18:47:41;12.70;99.90
16040;DHT22;8124;48.634;8.120;2023-04-08T18:52:45;12.60;99.90
16040;DHT22;8124;48.634;8.120;2023-04-08T18:57:50;12.80;99.90
16040;DHT22;8124;48.634;8.120;2023-04-08T19:02:54;12.80;99.90
16040;DHT22;8124;48.634;8.120;2023-04-08T19:07:58;13.00;99.90
16040;DHT22;8124;48.634;8.120;2023-04-08T19:13:04;13.00;99.90
16040;DHT22;8124;48.634;8.120;2023-04-08T19:18:07;12.90;99.90
16040;DHT22;8124;48.634;8.120;2023-04-08T19:23:10;12.80;99.90
16040;DHT22;8124;48.634;8.120;2023-04-08T19:28:15;12.40;99.90
16040;DHT22;8124;48.634;8.120;2023-04-08T19:33:18;12.20;99.90
16040;DHT22;8124;48.634;8.120;2023-04-08T19:38:21;11.80;99.90
16040;DHT22;8124;48.634;8.120;2023-04-08T19:43:26;12.20;99.90
16040;DHT22;8124;48.634;8.120;2023-04-08T19:48:29;12.10;99.90
16040;DHT22;8124;48.634;8.120;2023-04-08T19:53:33;11.90;99.90
16040;DHT22;8124;48.634;8.120;2023-04-08T19:58:37;12.20;99.90
16040;DHT22;8124;48.634;8.120;2023-04-08T20:03:40;12.50;99.90
16040;DHT22;8124;48.634;8.120;2023-04-08T20:08:44;12.40;99.90
16040;DHT22;8124;48.634;8.120;2023-04-08T20:13:48;12.50;99.90
16040;DHT22;8124;48.634;8.120;2023-04-08T20:18:51;12.20;99.90
16040;DHT22;8124;48.634;8.120;2023-04-08T20:23:54;12.20;99.90
16040;DHT22;8124;48.634;8.120;2023-04-08T20:28:59;12.10;99.90
16040;DHT22;8124;48.634;8.120;2023-04-08T20:34:02;12.00;99.90
16040;DHT22;8124;48.634;8.120;2023-04-08T20:39:08;12.10;99.90
16040;DHT22;8124;48.634;8.120;2023-04-08T20:44:13;12.10;99.90
16040;DHT22;8124;48.634;8.120;2023-04-08T20:49:16;12.10;99.90
16040;DHT22;8124;48.634;8.120;2023-04-08T20:54:20;12.20;99.90
16040;DHT22;8124;48.634;8.120;2023-04-08T20:59:29;12.10;99.90
16040;DHT22;8124;48.634;8.120;2023-04-08T21:04:32;12.00;99.90
16040;DHT22;8124;48.634;8.120;2023-04-08T21:09:35;12.10;99.90
16040;DHT22;8124;48.634;8.120;2023-04-08T21:14:39;12.10;99.90
16040;DHT22;8124;48.634;8.120;2023-04-08T21:19:42;12.10;99.90
16040;DHT22;8124;48.634;8.120;2023-04-08T21:24:45;12.00;99.90
16040;DHT22;8124;48.634;8.120;2023-04-08T21:29:51;12.00;99.90
16040;DHT22;8124;48.634;8.120;2023-04-08T21:34:54;11.80;99.90
16040;DHT22;8124;48.634;8.120;2023-04-08T21:39:57;11.80;99.90
16040;DHT22;8124;48.634;8.120;2023-04-08T21:45:01;11.90;99.90
16040;DHT22;8124;48.634;8.120;2023-04-08T21:50:05;11.80;99.90
16040;DHT22;8124;48.634;8.120;2023-04-08T21:55:09;11.80;99.90
16040;DHT22;8124;48.634;8.120;2023-04-08T22:00:13;11.80;99.90
16040;DHT22;8124;48.634;8.120;2023-04-08T22:05:17;11.90;99.90
16040;DHT22;8124;48.634;8.120;2023-04-08T22:10:20;11.80;99.90
16040;DHT22;8124;48.634;8.120;2023-04-08T22:15:24;11.90;99.90
16040;DHT22;8124;48.634;8.120;2023-04-08T22:20:27;11.50;99.90
16040;DHT22;8124;48.634;8.120;2023-04-08T22:25:30;11.30;99.90
16040;DHT22;8124;48.634;8.120;2023-04-08T22:30:34;11.50;99.90
16040;DHT22;8124;48.634;8.120;2023-04-08T22:35:37;11.70;99.90
16040;DHT22;8124;48.634;8.120;2023-04-08T22:40:41;11.60;99.90
16040;DHT22;8124;48.634;8.120;2023-04-08T22:45:45;11.60;99.90
16040;DHT22;8124;48.634;8.120;2023-04-08T22:50:48;11.60;99.90
16040;DHT22;8124;48.634;8.120;2023-04-08T22:55:51;11.60;99.90
16040;DHT22;8124;48.634;8.120;2023-04-08T23:00:56;11.60;99.90
16040;DHT22;8124;48.634;8.120;2023-04-08T23:05:59;11.30;99.90
16040;DHT22;8124;48.634;8.120;2023-04-08T23:11:02;11.50;99.90
16040;DHT22;8124;48.634;8.120;2023-04-08T23:16:06;11.60;99.90
16040;DHT22;8124;48.634;8.120;2023-04-08T23:21:09;11.50;99.90
16040;DHT22;8124;48.634;8.120;2023-04-08T23:26:15;11.60;99.90
16040;DHT22;8124;48.634;8.120;2023-04-08T23:31:20;11.60;99.90
16040;DHT22;8124;48.634;8.120;2023-04-08T23:36:23;11.50;99.90
16040;DHT22;8124;48.634;8.120;2023-04-08T23:41:26;11.50;99.90
16040;DHT22;8124;48.634;8.120;2023-04-08T23:46:30;11.60;99.90
16040;DHT22;8124;48.634;8.120;2023-04-08T23:51:33;11.50;99.90
16040;DHT22;8124;48.634;8.120;2023-04-08T23:56:39;11.50;99.90
